Time;durP1;ratioP1;P1;durP2;ratioP2;P2;SDS_P1;SDS_P2;PMS_P1;PMS_P2;Temp;Humidity;BMP_temperature;BMP_pressure;BME280_temperature;BME280_humidity;BME280_pressure;Samples;Min_cycle;Max_cycle;Signal;HPM_P1;HPM_P2
2022/07/15 00:01:09;;;;;;;;;;;;;;;27.75;34.91;99915.50;5389850;32;36181;-87
2022/07/15 00:04:12;;;;;;;;;;;;;;;27.75;35.00;99950.59;5402954;32;35718;-76
2022/07/15 00:07:14;;;;;;;;;;;;;;;26.94;37.06;99968.09;5409210;32;35994;-74
2022/07/15 00:10:18;;;;;;;;;;;;;;;26.96;37.31;99975.00;5392912;32;35821;-86
2022/07/15 00:13:21;;;;;;;;;;;;;;;27.52;36.29;99956.00;5386646;32;36402;-86
2022/07/15 00:16:23;;;;;;;;;;;;;;;27.03;36.62;99966.19;5419666;32;35316;-87
2022/07/15 00:19:25;;;;;;;;;;;;;;;27.87;35.23;99970.75;5394707;32;36391;-85
2022/07/15 00:22:27;;;;;;;;;;;;;;;27.48;35.50;99970.84;5419641;32;35890;-86
2022/07/15 00:25:31;;;;;;;;;;;;;;;27.68;36.03;99976.59;5388098;32;34899;-80
2022/07/15 00:28:33;;;;;;;;;;;;;;;27.54;35.71;99960.16;5407808;32;35255;-84
2022/07/15 00:31:35;;;;;;;;;;;;;;;27.75;35.18;99951.44;5414318;32;36508;-73
2022/07/15 00:34:37;;;;;;;;;;;;;;;27.69;35.13;99951.31;5384856;32;44829;-84
2022/07/15 00:37:39;;;;;;;;;;;;;;;27.51;35.60;99951.62;5419111;32;35519;-73
2022/07/15 00:40:41;;;;;;;;;;;;;;;28.59;33.50;99918.84;5389714;32;37773;-80
2022/07/15 00:43:43;;;;;;;;;;;;;;;28.64;33.28;99910.19;5417512;32;34834;-73
2022/07/15 00:46:45;;;;;;;;;;;;;;;28.49;33.59;99908.34;5386544;32;35841;-86
2022/07/15 00:49:47;;;;;;;;;;;;;;;28.33;33.79;99920.16;5407833;32;34706;-86
2022/07/15 00:52:54;;;;;;;;;;;;;;;27.80;34.95;99910.37;5419410;32;36486;-74
2022/07/15 00:55:57;;;;;;;;;;;;;;;28.53;33.69;99903.38;5386533;32;36243;-85
2022/07/15 00:58:59;;;;;;;;;;;;;;;28.22;34.28;99895.47;5384582;32;35462;-73
2022/07/15 01:02:02;;;;;;;;;;;;;;;28.45;33.78;99887.28;5385507;32;37757;-74
2022/07/15 01:05:07;;;;;;;;;;;;;;;28.25;34.44;99900.47;5403290;32;36369;-74
2022/07/15 01:08:10;;;;;;;;;;;;;;;28.95;33.13;99918.09;5393889;32;44095;-87
2022/07/15 01:11:14;;;;;;;;;;;;;;;28.99;33.11;99927.53;5393914;32;34622;-85
2022/07/15 01:14:16;;;;;;;;;;;;;;;28.86;33.40;99956.06;5415454;32;35982;-74
2022/07/15 01:17:18;;;;;;;;;;;;;;;27.85;35.32;99959.28;5411259;32;35325;-74
2022/07/15 01:20:20;;;;;;;;;;;;;;;28.49;34.36;99964.28;5402872;32;36573;-76
2022/07/15 01:23:22;;;;;;;;;;;;;;;27.15;37.04;99973.75;5393905;32;35763;-88
2022/07/15 01:26:24;;;;;;;;;;;;;;;28.15;35.06;99981.00;5418851;32;35599;-75
2022/07/15 01:29:27;;;;;;;;;;;;;;;27.07;37.35;99997.22;5386012;32;34860;-87
2022/07/15 01:32:29;;;;;;;;;;;;;;;28.14;35.46;100006.28;5406108;32;34904;-86
2022/07/15 01:35:31;;;;;;;;;;;;;;;27.86;35.89;100009.56;5400491;32;35294;-76
2022/07/15 01:38:33;;;;;;;;;;;;;;;27.22;37.58;100007.09;5390960;32;35738;-85
2022/07/15 01:41:49;;;;;;;;;;;;;;;27.78;36.76;99994.28;5421954;32;34281;-85
2022/07/15 01:44:52;;;;;;;;;;;;;;;26.88;38.88;99998.47;5406466;32;35750;-74
2022/07/15 01:47:54;;;;;;;;;;;;;;;27.00;39.02;99995.22;5411864;32;35370;-73
2022/07/15 01:50:56;;;;;;;;;;;;;;;26.65;39.92;99993.81;5377640;32;35049;-85
2022/07/15 01:53:58;;;;;;;;;;;;;;;27.59;38.11;99991.19;5388847;32;35973;-74
2022/07/15 01:57:00;;;;;;;;;;;;;;;26.56;40.41;99983.25;5420514;32;36171;-86
2022/07/15 02:00:03;;;;;;;;;;;;;;;26.97;39.69;99984.75;5378457;32;35570;-74
2022/07/15 02:03:07;;;;;;;;;;;;;;;26.15;41.54;99976.06;5416111;32;34644;-85
2022/07/15 02:06:10;;;;;;;;;;;;;;;26.14;41.76;99970.81;5402544;32;44570;-74
2022/07/15 02:09:11;;;;;;;;;;;;;;;25.82;42.69;99979.75;5387938;32;35798;-74
2022/07/15 02:12:13;;;;;;;;;;;;;;;26.17;41.81;99981.25;5416367;32;36929;-74
2022/07/15 02:15:17;;;;;;;;;;;;;;;26.01;42.10;100006.34;5385499;32;35374;-74
2022/07/15 02:18:19;;;;;;;;;;;;;;;25.76;42.65;99983.97;5425704;32;35442;-87
2022/07/15 02:21:21;;;;;;;;;;;;;;;25.66;43.09;99970.63;5403081;32;35643;-74
2022/07/15 02:24:24;;;;;;;;;;;;;;;26.27;41.55;99972.97;5405595;32;34900;-76
2022/07/15 02:27:26;;;;;;;;;;;;;;;26.76;40.52;99987.22;5398035;32;35405;-74
2022/07/15 02:30:32;;;;;;;;;;;;;;;27.10;39.78;99980.69;5400803;32;34357;-74
2022/07/15 02:33:34;;;;;;;;;;;;;;;26.95;39.78;100002.13;5393764;32;35721;-74
2022/07/15 02:36:36;;;;;;;;;;;;;;;26.85;39.87;100031.97;5397392;32;44500;-84
2022/07/15 02:39:38;;;;;;;;;;;;;;;26.86;39.24;100055.25;5420038;32;34675;-85
2022/07/15 02:42:46;;;;;;;;;;;;;;;26.72;39.27;100067.56;5406411;32;36085;-86
2022/07/15 02:45:48;;;;;;;;;;;;;;;26.32;39.65;100076.53;5413982;32;37078;-86
2022/07/15 02:48:50;;;;;;;;;;;;;;;26.66;39.11;100099.75;5390353;32;35336;-75
2022/07/15 02:51:52;;;;;;;;;;;;;;;26.77;38.98;100099.41;5404071;32;36198;-73
2022/07/15 02:54:54;;;;;;;;;;;;;;;26.23;39.88;100084.78;5412575;32;35614;-74
2022/07/15 02:57:56;;;;;;;;;;;;;;;27.11;37.67;100068.66;5399330;32;35241;-74
2022/07/15 03:00:59;;;;;;;;;;;;;;;26.96;37.72;100082.84;5400545;32;35607;-80
2022/07/15 03:04:01;;;;;;;;;;;;;;;26.27;39.22;100086.97;5390251;32;36045;-74
2022/07/15 03:07:03;;;;;;;;;;;;;;;26.63;38.46;100092.03;5417947;32;35808;-73
2022/07/15 03:10:05;;;;;;;;;;;;;;;25.73;39.69;100073.12;5384344;32;35660;-85
2022/07/15 03:13:08;;;;;;;;;;;;;;;25.76;39.75;100070.13;5387737;32;43050;-85
2022/07/15 03:16:10;;;;;;;;;;;;;;;26.56;37.84;100077.56;5419110;32;36272;-74
2022/07/15 03:19:12;;;;;;;;;;;;;;;26.14;37.81;100071.31;5401079;32;35020;-74
2022/07/15 03:22:14;;;;;;;;;;;;;;;26.81;36.31;100054.94;5405428;32;35030;-85
2022/07/15 03:25:16;;;;;;;;;;;;;;;26.07;36.87;100056.00;5394019;32;36105;-74
2022/07/15 03:28:19;;;;;;;;;;;;;;;26.28;36.21;100064.44;5394311;32;35659;-73
2022/07/15 03:31:20;;;;;;;;;;;;;;;26.49;35.33;100084.66;5407798;32;34739;-84
2022/07/15 03:34:25;;;;;;;;;;;;;;;26.79;34.59;100083.91;5403130;32;36009;-76
2022/07/15 03:37:26;;;;;;;;;;;;;;;26.51;34.56;100085.31;5399967;32;35247;-86
2022/07/15 03:40:28;;;;;;;;;;;;;;;26.69;34.43;100067.09;5413393;32;35498;-84
2022/07/15 03:43:31;;;;;;;;;;;;;;;25.79;35.52;100061.69;5424253;32;35111;-81
2022/07/15 03:46:33;;;;;;;;;;;;;;;26.02;35.17;100045.75;5373403;32;35075;-86
2022/07/15 03:49:35;;;;;;;;;;;;;;;26.31;34.38;100050.59;5417653;32;45520;-75
2022/07/15 03:52:39;;;;;;;;;;;;;;;26.33;34.38;100053.13;5388822;32;35627;-86
2022/07/15 03:55:41;;;;;;;;;;;;;;;26.21;34.70;100055.31;5394913;32;36129;-84
2022/07/15 03:58:44;;;;;;;;;;;;;;;26.73;33.87;100068.44;5397993;32;35266;-85
2022/07/15 04:01:47;;;;;;;;;;;;;;;26.67;33.73;100093.38;5379241;32;35643;-74
2022/07/15 04:04:50;;;;;;;;;;;;;;;27.18;33.29;100091.25;5393426;32;37770;-85
2022/07/15 04:07:52;;;;;;;;;;;;;;;26.35;35.18;100105.84;5397350;32;35364;-74
2022/07/15 04:10:55;;;;;;;;;;;;;;;26.93;33.89;100094.00;5426840;32;37422;-74
2022/07/15 04:13:57;;;;;;;;;;;;;;;26.36;35.32;100101.28;5391796;32;36399;-75
2022/07/15 04:16:59;;;;;;;;;;;;;;;26.05;36.12;100096.56;5407689;32;34441;-80
2022/07/15 04:20:01;;;;;;;;;;;;;;;26.44;35.40;100099.47;5423123;32;34807;-74
2022/07/15 04:23:04;;;;;;;;;;;;;;;26.72;35.13;100097.22;5389465;32;36099;-85
2022/07/15 04:26:06;;;;;;;;;;;;;;;26.91;34.95;100085.22;5417577;32;44892;-85
2022/07/15 04:29:08;;;;;;;;;;;;;;;26.64;35.81;100107.19;5402286;32;35893;-74
2022/07/15 04:32:10;;;;;;;;;;;;;;;27.07;35.16;100108.66;5420517;32;36966;-84
2022/07/15 04:35:12;;;;;;;;;;;;;;;27.08;35.31;100114.87;5401676;32;36307;-74
2022/07/15 04:38:14;;;;;;;;;;;;;;;26.93;35.45;100129.06;5401903;32;36869;-82
2022/07/15 04:41:16;;;;;;;;;;;;;;;26.56;36.35;100126.91;5421682;32;34968;-84
2022/07/15 04:44:19;;;;;;;;;;;;;;;25.49;38.97;100145.66;5406320;32;35410;-73
2022/07/15 04:47:20;;;;;;;;;;;;;;;24.73;41.18;100158.00;5423172;32;34694;-76
2022/07/15 04:51:06;;;;;;;;;;;;;;;24.81;41.04;100146.44;5400302;32;36668;-84
2022/07/15 04:53:49;;;;;;;;;;;;;;;24.32;42.84;100160.28;5384919;32;34269;-73
2022/07/15 04:56:51;;;;;;;;;;;;;;;24.75;42.90;100164.03;5412393;32;35585;-73
2022/07/15 04:59:52;;;;;;;;;;;;;;;25.07;42.85;100151.84;5376749;32;34976;-74
2022/07/15 05:02:54;;;;;;;;;;;;;;;25.47;43.12;100169.22;5416745;32;37213;-81
2022/07/15 05:05:57;;;;;;;;;;;;;;;24.31;46.26;100172.03;5400270;32;34886;-75
2022/07/15 05:08:59;;;;;;;;;;;;;;;24.34;45.88;100175.44;5414106;32;34537;-74
2022/07/15 05:12:01;;;;;;;;;;;;;;;23.95;46.81;100172.97;5405091;32;36508;-75
2022/07/15 05:15:03;;;;;;;;;;;;;;;23.67;47.99;100166.81;5388454;32;35144;-84
2022/07/15 05:18:05;;;;;;;;;;;;;;;22.97;49.79;100164.50;5418217;32;35807;-73
2022/07/15 05:21:08;;;;;;;;;;;;;;;22.54;51.89;100177.50;5420468;32;43887;-75
2022/07/15 05:24:10;;;;;;;;;;;;;;;22.64;51.92;100178.34;5415300;32;35422;-74
2022/07/15 05:27:30;;;;;;;;;;;;;;;23.45;49.95;100170.69;5391868;32;36027;-75
2022/07/15 05:30:37;;;;;;;;;;;;;;;23.05;51.21;100171.81;5408090;32;34917;-74
2022/07/15 05:33:39;;;;;;;;;;;;;;;23.11;50.73;100175.75;5396170;32;44941;-74
2022/07/15 05:36:41;;;;;;;;;;;;;;;23.65;49.79;100190.25;5409311;32;37748;-83
2022/07/15 05:39:55;;;;;;;;;;;;;;;23.49;49.83;100190.84;5420810;32;34757;-87
2022/07/15 05:42:58;;;;;;;;;;;;;;;23.68;49.66;100211.41;5410072;32;35835;-82
2022/07/15 05:46:00;;;;;;;;;;;;;;;23.08;51.60;100213.56;5420581;32;37168;-84
2022/07/15 05:49:02;;;;;;;;;;;;;;;23.26;51.57;100219.03;5408478;32;35489;-74
2022/07/15 05:52:04;;;;;;;;;;;;;;;22.76;53.23;100228.13;5402347;32;35720;-76
2022/07/15 05:55:06;;;;;;;;;;;;;;;22.41;54.57;100217.94;5409878;32;45893;-77
2022/07/15 05:58:08;;;;;;;;;;;;;;;22.51;54.75;100221.47;5380288;32;34938;-89
2022/07/15 06:01:10;;;;;;;;;;;;;;;22.54;54.11;100231.06;5390902;32;35254;-74
2022/07/15 06:04:13;;;;;;;;;;;;;;;22.94;53.51;100239.00;5403110;32;36466;-88
2022/07/15 06:07:15;;;;;;;;;;;;;;;23.30;52.14;100260.66;5407793;32;35301;-81
2022/07/15 06:10:17;;;;;;;;;;;;;;;22.20;55.47;100286.81;5391930;32;34922;-70
2022/07/15 06:13:20;;;;;;;;;;;;;;;20.92;60.75;100288.88;5381480;32;36701;-74
2022/07/15 06:16:22;;;;;;;;;;;;;;;21.76;58.12;100302.25;5399248;32;34995;-72
2022/07/15 06:19:24;;;;;;;;;;;;;;;21.78;58.08;100293.12;5385624;32;34791;-71
2022/07/15 06:22:26;;;;;;;;;;;;;;;21.47;59.40;100294.94;5413229;32;36660;-72
2022/07/15 06:25:28;;;;;;;;;;;;;;;21.64;59.11;100285.47;5400356;32;34804;-74
2022/07/15 06:28:30;;;;;;;;;;;;;;;21.52;59.76;100298.06;5408824;32;34859;-72
2022/07/15 06:31:32;;;;;;;;;;;;;;;21.30;60.88;100276.81;5398483;32;34868;-68
2022/07/15 06:34:34;;;;;;;;;;;;;;;21.41;60.37;100291.94;5399089;32;35150;-69
2022/07/15 06:37:36;;;;;;;;;;;;;;;21.58;60.11;100296.69;5407760;32;45471;-71
2022/07/15 06:40:38;;;;;;;;;;;;;;;21.70;59.90;100276.03;5395508;32;34720;-69
2022/07/15 06:43:42;;;;;;;;;;;;;;;20.83;62.93;100268.31;5411538;32;36165;-69
2022/07/15 06:46:44;;;;;;;;;;;;;;;21.68;60.17;100253.94;5395917;32;34770;-73
2022/07/15 06:49:48;;;;;;;;;;;;;;;21.49;60.79;100276.94;5412047;32;34755;-68
2022/07/15 06:52:51;;;;;;;;;;;;;;;20.83;63.39;100285.19;5385013;32;35192;-67
2022/07/15 06:55:53;;;;;;;;;;;;;;;21.21;62.11;100305.16;5398200;32;35636;-70
2022/07/15 06:58:55;;;;;;;;;;;;;;;21.84;59.79;100297.09;5377899;32;34924;-70
2022/07/15 07:01:57;;;;;;;;;;;;;;;22.40;57.78;100288.56;5391926;32;34862;-71
2022/07/15 07:05:00;;;;;;;;;;;;;;;22.22;58.33;100292.88;5407798;32;34294;-70
2022/07/15 07:08:02;;;;;;;;;;;;;;;22.76;56.25;100305.81;5383367;32;35320;-71
2022/07/15 07:11:04;;;;;;;;;;;;;;;21.47;61.23;100363.63;5409800;32;34787;-72
2022/07/15 07:14:06;;;;;;;;;;;;;;;21.56;61.18;100361.00;5401993;32;43909;-69
2022/07/15 07:17:08;;;;;;;;;;;;;;;21.65;61.38;100356.69;5396317;32;35205;-68
2022/07/15 07:20:10;;;;;;;;;;;;;;;21.72;60.75;100378.41;5414340;32;34759;-70
2022/07/15 07:23:12;;;;;;;;;;;;;;;21.77;60.43;100373.53;5378129;32;34700;-68
2022/07/15 07:26:14;;;;;;;;;;;;;;;21.52;61.05;100394.34;5405082;32;34608;-71
2022/07/15 07:29:22;;;;;;;;;;;;;;;21.93;59.49;100381.06;5381917;32;36495;-67
2022/07/15 07:32:25;;;;;;;;;;;;;;;21.60;60.67;100389.19;5402927;32;36326;-72
2022/07/15 07:35:27;;;;;;;;;;;;;;;21.26;61.40;100369.78;5397799;32;34813;-70
2022/07/15 07:38:29;;;;;;;;;;;;;;;21.63;60.22;100366.66;5379994;32;36129;-70
2022/07/15 07:41:31;;;;;;;;;;;;;;;21.24;61.54;100376.19;5412590;32;36191;-72
2022/07/15 07:44:36;;;;;;;;;;;;;;;22.23;58.12;100380.25;5389983;32;36076;-69
2022/07/15 07:47:40;;;;;;;;;;;;;;;21.58;60.43;100395.66;5392970;32;44279;-72
2022/07/15 07:50:42;;;;;;;;;;;;;;;21.78;59.79;100396.63;5398028;32;34828;-69
2022/07/15 07:53:46;;;;;;;;;;;;;;;22.03;58.52;100395.34;5406874;32;36097;-70
2022/07/15 07:56:48;;;;;;;;;;;;;;;22.21;57.61;100388.41;5402289;32;36398;-73
2022/07/15 07:59:50;;;;;;;;;;;;;;;23.19;54.45;100401.09;5376298;32;35912;-69
2022/07/15 08:02:56;;;;;;;;;;;;;;;22.39;57.15;100410.88;5397129;32;35023;-71
2022/07/15 08:05:58;;;;;;;;;;;;;;;22.35;57.35;100404.13;5392008;32;34700;-71
2022/07/15 08:09:03;;;;;;;;;;;;;;;22.11;57.80;100400.91;5407342;32;36094;-76
2022/07/15 08:12:05;;;;;;;;;;;;;;;22.10;57.74;100397.38;5381115;32;36485;-69
2022/07/15 08:15:08;;;;;;;;;;;;;;;22.36;57.34;100386.22;5401777;32;44545;-69
2022/07/15 08:18:10;;;;;;;;;;;;;;;21.30;61.88;100405.12;5389318;32;35967;-69
2022/07/15 08:21:13;;;;;;;;;;;;;;;21.49;62.12;100393.72;5392825;32;35646;-68
2022/07/15 08:24:16;;;;;;;;;;;;;;;22.02;60.70;100413.19;5411713;32;35949;-70
2022/07/15 08:27:18;;;;;;;;;;;;;;;21.86;60.81;100416.37;5395588;32;34842;-68
2022/07/15 08:30:20;;;;;;;;;;;;;;;21.43;62.34;100424.50;5391005;32;35440;-72
2022/07/15 08:33:22;;;;;;;;;;;;;;;21.80;61.66;100416.03;5380592;32;36615;-73
2022/07/15 08:36:24;;;;;;;;;;;;;;;22.76;58.56;100412.12;5393817;32;34859;-71
2022/07/15 08:39:26;;;;;;;;;;;;;;;22.77;58.16;100413.81;5406432;32;36756;-72
2022/07/15 08:42:28;;;;;;;;;;;;;;;22.86;58.16;100423.69;5383744;32;35043;-71
2022/07/15 08:45:30;;;;;;;;;;;;;;;22.73;58.27;100421.28;5409809;32;38199;-73
2022/07/15 08:48:33;;;;;;;;;;;;;;;23.50;55.79;100413.31;5390457;32;34747;-74
2022/07/15 08:51:37;;;;;;;;;;;;;;;23.41;56.03;100413.34;5415579;32;35634;-84
2022/07/15 08:54:39;;;;;;;;;;;;;;;23.24;57.14;100417.56;5395604;32;44408;-81
2022/07/15 08:57:45;;;;;;;;;;;;;;;23.06;57.98;100414.75;5382421;32;36014;-75
2022/07/15 09:00:47;;;;;;;;;;;;;;;23.34;57.03;100429.16;5397498;32;36101;-77
2022/07/15 09:03:49;;;;;;;;;;;;;;;23.11;58.53;100444.66;5394470;32;37263;-79
2022/07/15 09:06:51;;;;;;;;;;;;;;;22.87;59.19;100441.53;5408906;32;35898;-72
2022/07/15 09:09:53;;;;;;;;;;;;;;;22.73;59.18;100450.75;5394996;32;34753;-71
2022/07/15 09:12:55;;;;;;;;;;;;;;;22.41;59.99;100429.47;5410818;32;35160;-78
2022/07/15 09:15:58;;;;;;;;;;;;;;;23.35;56.88;100424.63;5398044;32;36008;-72
2022/07/15 09:19:01;;;;;;;;;;;;;;;24.35;53.38;100432.28;5385360;32;35932;-73
2022/07/15 09:22:03;;;;;;;;;;;;;;;24.73;52.73;100472.41;5402918;32;34752;-81
2022/07/15 09:25:05;;;;;;;;;;;;;;;24.23;54.05;100461.97;5398977;32;35066;-75
2022/07/15 09:28:08;;;;;;;;;;;;;;;24.84;51.64;100437.25;5411121;32;45093;-77
2022/07/15 09:34:35;;;;;;;;;;;;;;;25.33;50.29;100448.56;5399408;32;34732;-79
2022/07/15 09:37:54;;;;;;;;;;;;;;;25.32;50.52;100429.91;5398471;32;45248;-83
2022/07/15 09:40:56;;;;;;;;;;;;;;;25.43;49.56;100431.47;5391504;32;34825;-75
2022/07/15 09:44:03;;;;;;;;;;;;;;;23.87;53.72;100441.28;5405145;32;32768;-75
2022/07/15 09:47:05;;;;;;;;;;;;;;;24.22;52.50;100457.59;5388699;32;35460;-74
2022/07/15 09:50:10;;;;;;;;;;;;;;;23.95;52.56;100455.66;5391535;32;36383;-74
2022/07/15 09:53:13;;;;;;;;;;;;;;;24.25;51.30;100446.56;5398533;32;34627;-73
2022/07/15 09:56:21;;;;;;;;;;;;;;;24.15;51.47;100436.81;5397781;32;34627;-74
2022/07/15 09:59:23;;;;;;;;;;;;;;;25.37;47.85;100438.31;5391258;32;34752;-72
2022/07/15 10:02:26;;;;;;;;;;;;;;;26.12;45.75;100454.94;5399164;32;35678;-72
2022/07/15 10:05:30;;;;;;;;;;;;;;;26.32;45.46;100455.56;5406995;32;35882;-73
2022/07/15 10:08:34;;;;;;;;;;;;;;;26.20;45.61;100454.97;5396724;32;34605;-76
2022/07/15 10:11:38;;;;;;;;;;;;;;;25.89;46.99;100444.69;5390924;32;43394;-81
2022/07/15 10:14:52;;;;;;;;;;;;;;;26.30;45.43;100425.25;5393260;32;46934;-82
2022/07/15 10:18:03;;;;;;;;;;;;;;;26.29;45.06;100381.31;5385754;32;35970;-81
2022/07/15 10:21:11;;;;;;;;;;;;;;;24.95;47.93;100347.50;5412719;32;35182;-78
2022/07/15 10:24:33;;;;;;;;;;;;;;;25.79;45.90;100347.03;5399836;32;35462;-77
2022/07/15 10:27:54;;;;;;;;;;;;;;;25.65;46.19;100387.97;5394122;32;43737;-76
2022/07/15 10:31:12;;;;;;;;;;;;;;;25.70;46.64;100399.09;5409727;32;35663;-77
2022/07/15 10:34:14;;;;;;;;;;;;;;;25.52;46.40;100396.44;5393726;32;44672;-78
2022/07/15 10:37:16;;;;;;;;;;;;;;;25.95;45.42;100378.56;5402225;32;34931;-79
2022/07/15 10:40:19;;;;;;;;;;;;;;;25.47;46.24;100377.22;5399276;32;36362;-74
2022/07/15 10:43:22;;;;;;;;;;;;;;;26.08;44.43;100364.66;5401883;32;36139;-74
2022/07/15 10:46:26;;;;;;;;;;;;;;;24.90;46.94;100365.91;5399390;32;35228;-82
2022/07/15 10:49:30;;;;;;;;;;;;;;;26.08;40.73;100376.31;5370961;32;36390;-76
2022/07/15 10:52:33;;;;;;;;;;;;;;;26.01;35.67;100379.78;5407568;32;36072;-73
2022/07/15 10:55:34;;;;;;;;;;;;;;;26.66;32.44;100372.87;5392744;32;35978;-74
2022/07/15 10:58:37;;;;;;;;;;;;;;;27.50;30.68;100370.94;5397861;32;44986;-65
2022/07/15 11:01:39;;;;;;;;;;;;;;;27.88;28.51;100361.31;5374662;32;35643;-79
2022/07/15 11:04:42;;;;;;;;;;;;;;;28.85;26.37;100354.69;5403571;32;35417;-67
2022/07/15 11:07:44;;;;;;;;;;;;;;;27.76;26.79;100379.75;5391561;32;35472;-65
2022/07/15 11:10:46;;;;;;;;;;;;;;;27.67;26.01;100372.63;5392043;32;34738;-67
2022/07/15 11:13:49;;;;;;;;;;;;;;;28.12;25.73;100375.78;5391068;32;34917;-68
2022/07/15 11:16:55;;;;;;;;;;;;;;;27.94;25.26;100360.62;5388461;32;35858;-80
2022/07/15 11:20:10;;;;;;;;;;;;;;;28.23;24.42;100367.28;5396738;32;36143;-68
2022/07/15 11:23:13;;;;;;;;;;;;;;;27.20;25.98;100362.53;5396847;32;44513;-68
2022/07/15 11:26:22;;;;;;;;;;;;;;;27.43;25.80;100365.38;5391602;32;34803;-65
2022/07/15 11:29:24;;;;;;;;;;;;;;;26.59;26.17;100366.44;5412003;32;34623;-67
2022/07/15 11:32:26;;;;;;;;;;;;;;;27.96;24.24;100355.06;5390929;32;34657;-79
2022/07/15 11:35:29;;;;;;;;;;;;;;;28.00;24.56;100365.31;5402748;32;35457;-67
2022/07/15 11:38:32;;;;;;;;;;;;;;;28.25;24.34;100349.03;5376347;32;35367;-70
2022/07/15 11:44:55;;;;;;;;;;;;;;;29.15;21.53;100360.22;5403575;32;36066;-71
2022/07/15 11:47:57;;;;;;;;;;;;;;;28.59;21.67;100354.12;5384676;32;34618;-76
2022/07/15 11:50:59;;;;;;;;;;;;;;;28.25;22.15;100366.09;5398509;32;36334;-69
2022/07/15 11:54:02;;;;;;;;;;;;;;;28.37;21.27;100369.28;5377691;32;36263;-68
2022/07/15 11:57:10;;;;;;;;;;;;;;;27.96;21.54;100360.47;5408050;32;34784;-70
2022/07/15 12:00:12;;;;;;;;;;;;;;;27.32;22.27;100354.97;5359774;32;44558;-76
2022/07/15 12:03:14;;;;;;;;;;;;;;;26.94;22.92;100359.97;5387748;32;37433;-75
2022/07/15 12:06:19;;;;;;;;;;;;;;;27.43;22.37;100362.69;5404653;32;35861;-76
2022/07/15 12:09:21;;;;;;;;;;;;;;;27.34;22.62;100365.56;5393357;32;36215;-70
2022/07/15 12:12:23;;;;;;;;;;;;;;;28.06;21.92;100377.31;5396179;32;36568;-69
2022/07/15 12:15:25;;;;;;;;;;;;;;;27.78;22.00;100372.31;5388271;32;35663;-68
2022/07/15 12:18:27;;;;;;;;;;;;;;;27.79;21.62;100382.09;5408339;32;35723;-70
2022/07/15 12:21:30;;;;;;;;;;;;;;;27.44;21.93;100382.44;5393585;32;36422;-76
2022/07/15 12:24:45;;;;;;;;;;;;;;;27.40;21.77;100390.03;5347537;32;903316;-76
2022/07/15 12:27:48;;;;;;;;;;;;;;;27.31;21.57;100382.09;5402662;32;36481;-71
2022/07/15 12:30:50;;;;;;;;;;;;;;;27.96;20.93;100382.91;5397428;32;36157;-76
2022/07/15 12:33:52;;;;;;;;;;;;;;;28.39;20.86;100375.34;5395806;32;36061;-77
2022/07/15 12:36:54;;;;;;;;;;;;;;;28.48;20.56;100378.88;5392353;32;35530;-77
2022/07/15 12:40:07;;;;;;;;;;;;;;;28.18;21.20;100365.09;5402629;32;36237;-75
2022/07/15 12:43:09;;;;;;;;;;;;;;;28.44;21.00;100358.63;5394740;32;45194;-69
2022/07/15 12:46:11;;;;;;;;;;;;;;;28.25;21.37;100359.84;5382738;32;35820;-70
2022/07/15 12:49:33;;;;;;;;;;;;;;;27.83;21.80;100363.72;5400061;32;34978;-79
2022/07/15 12:52:36;;;;;;;;;;;;;;;27.83;22.16;100357.47;5398153;32;35149;-78
2022/07/15 12:55:42;;;;;;;;;;;;;;;28.57;21.44;100365.13;5396212;32;44708;-78
2022/07/15 12:58:44;;;;;;;;;;;;;;;28.80;20.76;100350.81;5385923;32;35629;-75
2022/07/15 13:02:02;;;;;;;;;;;;;;;28.52;21.12;100356.69;5360736;32;35550;-68
2022/07/15 13:05:05;;;;;;;;;;;;;;;29.20;19.73;100340.75;5394046;32;35090;-69
2022/07/15 13:08:08;;;;;;;;;;;;;;;28.65;20.53;100323.69;5382225;32;45669;-69
2022/07/15 13:11:10;;;;;;;;;;;;;;;28.99;20.73;100333.31;5398977;32;34629;-70
2022/07/15 13:14:12;;;;;;;;;;;;;;;29.04;20.89;100356.06;5382503;32;35862;-69
2022/07/15 13:17:14;;;;;;;;;;;;;;;28.74;20.86;100346.13;5387861;32;36450;-75
2022/07/15 13:20:16;;;;;;;;;;;;;;;28.80;19.84;100345.41;5408879;32;36463;-77
2022/07/15 13:23:18;;;;;;;;;;;;;;;28.87;19.99;100349.06;5398360;32;35304;-68
2022/07/15 13:26:20;;;;;;;;;;;;;;;29.42;19.59;100353.41;5417015;32;34830;-70
2022/07/15 13:29:22;;;;;;;;;;;;;;;29.47;19.30;100345.56;5398852;32;35233;-77
2022/07/15 13:32:25;;;;;;;;;;;;;;;30.28;17.86;100337.66;5389964;32;36055;-78
2022/07/15 13:35:30;;;;;;;;;;;;;;;28.88;19.16;100357.00;5396415;32;35452;-70
2022/07/15 13:38:32;;;;;;;;;;;;;;;28.28;19.45;100359.50;5388900;32;37062;-70
2022/07/15 13:41:35;;;;;;;;;;;;;;;28.99;19.19;100355.78;5403073;32;36036;-70
2022/07/15 13:44:37;;;;;;;;;;;;;;;29.39;18.84;100351.91;5384798;32;44525;-70
2022/07/15 13:47:39;;;;;;;;;;;;;;;29.31;19.02;100368.22;5416903;32;34800;-77
2022/07/15 13:54:19;;;;;;;;;;;;;;;29.39;18.59;100370.84;5381182;32;35142;-69
2022/07/15 13:57:21;;;;;;;;;;;;;;;28.87;18.77;100371.56;5412323;32;35316;-69
2022/07/15 14:00:24;;;;;;;;;;;;;;;29.45;18.25;100374.69;5374639;32;35335;-79
2022/07/15 14:03:26;;;;;;;;;;;;;;;29.53;18.31;100365.69;5415948;32;35791;-75
2022/07/15 14:06:28;;;;;;;;;;;;;;;29.49;18.48;100384.12;5399432;32;35205;-71
2022/07/15 14:09:30;;;;;;;;;;;;;;;29.92;17.72;100366.28;5401590;32;36092;-74
2022/07/15 14:12:32;;;;;;;;;;;;;;;29.82;18.08;100373.88;5399791;32;35070;-76
2022/07/15 14:15:34;;;;;;;;;;;;;;;30.44;17.01;100387.06;5387955;32;34803;-77
2022/07/15 14:18:48;;;;;;;;;;;;;;;29.98;17.35;100380.13;5415022;32;45089;-71
2022/07/15 14:21:50;;;;;;;;;;;;;;;29.49;17.56;100376.00;5400235;32;34887;-75
2022/07/15 14:24:54;;;;;;;;;;;;;;;29.38;17.92;100371.03;5415183;32;36251;-76
2022/07/15 14:27:57;;;;;;;;;;;;;;;29.30;18.18;100368.38;5398845;32;36140;-78
2022/07/15 14:30:59;;;;;;;;;;;;;;;29.11;18.62;100365.16;5413778;32;33458;-69
2022/07/15 14:34:01;;;;;;;;;;;;;;;29.10;18.80;100366.16;5384108;32;34914;-69
2022/07/15 14:37:03;;;;;;;;;;;;;;;29.41;18.26;100363.38;5396720;32;34426;-77
2022/07/15 14:40:25;;;;;;;;;;;;;;;29.35;18.28;100371.41;5413935;32;35816;-78
2022/07/15 14:43:27;;;;;;;;;;;;;;;29.55;17.98;100367.19;5386168;32;35379;-70
2022/07/15 14:46:29;;;;;;;;;;;;;;;29.40;17.84;100366.28;5416484;32;35672;-77
2022/07/15 14:49:31;;;;;;;;;;;;;;;29.08;18.11;100365.50;5383432;32;36536;-69
2022/07/15 14:52:33;;;;;;;;;;;;;;;29.44;17.79;100367.59;5404732;32;35703;-80
2022/07/15 14:55:35;;;;;;;;;;;;;;;29.65;17.76;100364.22;5398974;32;37398;-76
2022/07/15 14:58:37;;;;;;;;;;;;;;;29.42;17.83;100370.47;5387966;32;36250;-77
2022/07/15 15:01:39;;;;;;;;;;;;;;;29.72;17.68;100377.88;5405630;32;36040;-71
2022/07/15 15:04:41;;;;;;;;;;;;;;;28.19;18.78;100379.47;5398222;32;35598;-70
2022/07/15 15:07:43;;;;;;;;;;;;;;;29.03;17.66;100369.78;5401368;32;35394;-70
2022/07/15 15:10:45;;;;;;;;;;;;;;;28.52;17.61;100348.59;5384446;32;35422;-79
2022/07/15 15:13:47;;;;;;;;;;;;;;;28.47;17.52;100369.94;5403224;32;35638;-69
2022/07/15 15:16:49;;;;;;;;;;;;;;;28.85;17.63;100375.44;5411745;32;35661;-78
2022/07/15 15:20:07;;;;;;;;;;;;;;;28.73;17.59;100371.50;5395312;32;35950;-75
2022/07/15 15:23:09;;;;;;;;;;;;;;;28.63;17.68;100373.56;5401172;32;47022;-77
2022/07/15 15:26:25;;;;;;;;;;;;;;;28.54;17.98;100362.78;5385135;32;34895;-77
2022/07/15 15:29:27;;;;;;;;;;;;;;;28.95;17.57;100359.88;5407587;32;35019;-78
2022/07/15 15:32:29;;;;;;;;;;;;;;;28.75;18.41;100370.28;5404710;32;35116;-73
2022/07/15 15:35:31;;;;;;;;;;;;;;;28.29;18.98;100374.69;5393493;32;35580;-69
2022/07/15 15:38:33;;;;;;;;;;;;;;;28.90;18.40;100367.62;5413623;32;35841;-74
2022/07/15 15:41:36;;;;;;;;;;;;;;;28.37;19.03;100374.69;5395790;32;44733;-78
2022/07/15 15:44:38;;;;;;;;;;;;;;;28.61;18.98;100368.34;5412616;32;36439;-81
2022/07/15 15:47:41;;;;;;;;;;;;;;;27.72;20.36;100374.84;5396303;32;35243;-69
2022/07/15 15:50:43;;;;;;;;;;;;;;;28.45;20.00;100373.81;5404470;32;36514;-76
2022/07/15 15:53:44;;;;;;;;;;;;;;;27.17;21.49;100376.34;5390724;32;37065;-69